Главная страница
METAR-TAF:

METAR-TAF

Аэропорты :

Тайбэй, Тайвань

Тайвань-Таоюань

широта: 25-05N, долгота: 121-13E, высота над уровнем моря: 33 м

Текущие метеонаблюдения

Эта сводка был подготовлена 23 минут назад, в 21:30 UTC
Ветер 11 Узел от северо-восточный
Температура 19°C
Влажность 73%
Давление 1013 hPa
Видимость 10 км и более
небольшая облачность на высоте 2000 фута
Рассеянная облачность на высоте 18000 фута

METAR: RCTP 252130Z 05011KT 9999 FEW020 BKN180 19/14 Q1013 NOSIG RMK A2992

Время: 05:53 (21:53 UTC)

Прогноз

Эта сводка был подготовлена 4 часа и 53 минут назад, в 17:00 UTC
Прогноз действительный с 25-го 18 UTC до 26-го 24 UTC
Ветер 9 Узел от восточный
Видимость 10 км и более
небольшая облачность на высоте 2000 фута
Рассеянная облачность на высоте 3200 фута
временами
С 24-го 02 UTC до 24-го 09 UTC
Ветер 16 Узел от северо-восточный

TAF: RCTP 251700Z 2518/2624 08009KT 9999 FEW020 BKN032 TEMPO 2402/2409 04016KT

Метеонаблюдения и прогнозы для более 4000 аэропортов (сводки METAR и TAF).

Имеющиеся станции представлены на карте желтыми и красными точками.

Чтобы увидеть название станции, наведите на нее мышь.

Затем щелкните, чтобы увидеть метеонаблюдения и метеопрогнозы.

Управление картой: чтобы увеличить масштаб, щелкните зеленые кнопки с черным крестиком; чтобы уменьшить масштаб, щелкните зеленую кнопку с тире; для просмотра соседних карт щелкайте зеленые стрелки.


METAR-TAF: